Babbitt, Nevada
Current Conditions -  °F | °C
As of 5:56 AM on Friday 24 Oct 2014 (Local Time) from KNFL Reporting Station
Clear Clear  
Wind Chill: 36°   Ceiling: Unl
Heat Index: 36°   Visibility: 10mi
Dew Point: 28°   Wind: 3mph
Humidity: 73%   Direction: 210°SSW
Pressure: 30.07"   Gusts: NA
Location:  38.6331°N, 118.656°W
Report Text: KNFL 241256Z AUTO 21003KT 10SM CLR 02/M02 A3007 RMK AO2 SLP149 T00221022
Loading
Personal Weather Stations






























Interactive Weather Map
Tropical Storm Tracking
New forecast layout! Learn more

10-Day Weather Forecast

Advertisements
Track Severe Weather on mobile